sensor_id;sensor_type;location;lat;lon;timestamp;noise_LAeq;noise_LA_min;noise_LA_max;noise_LA01;noise_LA95
53135;Laerm;40912;51.552;9.874;2023-06-22T00:03:42;49.41;47.68;51.31;;
53135;Laerm;40912;51.552;9.874;2023-06-22T00:06:02;49.27;47.86;51.14;;
53135;Laerm;40912;51.552;9.874;2023-06-22T00:08:23;49.30;47.57;51.81;;
53135;Laerm;40912;51.552;9.874;2023-06-22T00:10:43;49.35;48.08;51.93;;
53135;Laerm;40912;51.552;9.874;2023-06-22T00:13:04;49.31;47.44;51.70;;
53135;Laerm;40912;51.552;9.874;2023-06-22T00:15:25;49.33;48.13;51.89;;
53135;Laerm;40912;51.552;9.874;2023-06-22T00:17:45;49.31;47.54;51.53;;
53135;Laerm;40912;51.552;9.874;2023-06-22T00:20:06;49.28;47.28;51.91;;
53135;Laerm;40912;51.552;9.874;2023-06-22T00:24:48;49.37;47.91;51.94;;
53135;Laerm;40912;51.552;9.874;2023-06-22T00:27:09;49.35;47.20;51.60;;
53135;Laerm;40912;51.552;9.874;2023-06-22T00:29:29;49.31;47.79;51.88;;
53135;Laerm;40912;51.552;9.874;2023-06-22T00:31:49;49.32;48.02;51.80;;
53135;Laerm;40912;51.552;9.874;2023-06-22T00:34:09;49.29;47.65;50.61;;
53135;Laerm;40912;51.552;9.874;2023-06-22T00:36:30;49.02;47.74;50.93;;
53135;Laerm;40912;51.552;9.874;2023-06-22T00:41:10;48.79;47.54;51.26;;
53135;Laerm;40912;51.552;9.874;2023-06-22T00:45:51;48.72;47.44;51.36;;
53135;Laerm;40912;51.552;9.874;2023-06-22T00:48:12;48.73;47.40;51.17;;
53135;Laerm;40912;51.552;9.874;2023-06-22T00:50:33;48.72;47.46;51.49;;
53135;Laerm;40912;51.552;9.874;2023-06-22T00:55:16;48.63;47.24;51.42;;
53135;Laerm;40912;51.552;9.874;2023-06-22T00:57:37;48.64;47.35;51.48;;
53135;Laerm;40912;51.552;9.874;2023-06-22T00:59:58;48.65;47.50;51.40;;
53135;Laerm;40912;51.552;9.874;2023-06-22T01:02:18;48.69;47.52;51.52;;
53135;Laerm;40912;51.552;9.874;2023-06-22T01:04:39;48.76;47.59;51.33;;
53135;Laerm;40912;51.552;9.874;2023-06-22T01:07:21;48.76;47.59;51.33;;
53135;Laerm;40912;51.552;9.874;2023-06-22T01:12:05;48.64;47.42;51.38;;
53135;Laerm;40912;51.552;9.874;2023-06-22T01:14:43;48.66;47.26;51.08;;
53135;Laerm;40912;51.552;9.874;2023-06-22T01:17:07;48.72;47.40;51.44;;
53135;Laerm;40912;51.552;9.874;2023-06-22T01:19:39;48.70;47.55;51.58;;
53135;Laerm;40912;51.552;9.874;2023-06-22T01:22:03;48.76;47.72;51.64;;
53135;Laerm;40912;51.552;9.874;2023-06-22T01:29:12;48.73;47.12;51.36;;
53135;Laerm;40912;51.552;9.874;2023-06-22T01:34:04;48.73;47.54;51.29;;
53135;Laerm;40912;51.552;9.874;2023-06-22T01:36:25;48.68;47.44;51.12;;
53135;Laerm;40912;51.552;9.874;2023-06-22T01:38:46;48.68;47.14;50.03;;
53135;Laerm;40912;51.552;9.874;2023-06-22T01:45:47;48.72;47.52;50.77;;
53135;Laerm;40912;51.552;9.874;2023-06-22T01:48:07;48.73;47.36;51.64;;
53135;Laerm;40912;51.552;9.874;2023-06-22T01:50:28;48.70;47.54;51.32;;
53135;Laerm;40912;51.552;9.874;2023-06-22T01:52:48;48.83;47.55;51.43;;
53135;Laerm;40912;51.552;9.874;2023-06-22T01:57:29;48.69;47.54;51.43;;
53135;Laerm;40912;51.552;9.874;2023-06-22T02:00:03;48.76;47.48;51.24;;
53135;Laerm;40912;51.552;9.874;2023-06-22T02:04:59;48.80;47.59;51.37;;
53135;Laerm;40912;51.552;9.874;2023-06-22T02:09:42;48.78;47.61;51.95;;
53135;Laerm;40912;51.552;9.874;2023-06-22T02:12:04;48.81;47.59;51.51;;
53135;Laerm;40912;51.552;9.874;2023-06-22T02:14:25;48.71;47.32;51.01;;
53135;Laerm;40912;51.552;9.874;2023-06-22T02:16:46;48.76;47.28;51.33;;
53135;Laerm;40912;51.552;9.874;2023-06-22T02:19:06;48.73;47.55;51.30;;
53135;Laerm;40912;51.552;9.874;2023-06-22T02:21:26;48.70;47.42;51.75;;
53135;Laerm;40912;51.552;9.874;2023-06-22T02:23:47;48.71;47.54;51.51;;
53135;Laerm;40912;51.552;9.874;2023-06-22T02:26:07;48.38;47.20;51.46;;
53135;Laerm;40912;51.552;9.874;2023-06-22T02:30:47;48.23;47.10;50.85;;
53135;Laerm;40912;51.552;9.874;2023-06-22T02:33:08;48.20;46.95;51.05;;
53135;Laerm;40912;51.552;9.874;2023-06-22T02:35:28;48.19;47.04;51.30;;
53135;Laerm;40912;51.552;9.874;2023-06-22T02:37:52;48.22;47.02;49.29;;
53135;Laerm;40912;51.552;9.874;2023-06-22T02:40:12;48.20;46.93;49.70;;
53135;Laerm;40912;51.552;9.874;2023-06-22T02:42:32;48.21;47.06;50.79;;
53135;Laerm;40912;51.552;9.874;2023-06-22T02:44:53;48.24;46.95;50.69;;
53135;Laerm;40912;51.552;9.874;2023-06-22T02:47:13;48.23;47.06;50.96;;
53135;Laerm;40912;51.552;9.874;2023-06-22T02:49:33;48.23;47.12;51.65;;
53135;Laerm;40912;51.552;9.874;2023-06-22T02:51:53;48.23;47.06;50.83;;
53135;Laerm;40912;51.552;9.874;2023-06-22T02:54:15;48.24;47.20;50.97;;
53135;Laerm;40912;51.552;9.874;2023-06-22T02:56:36;48.23;47.20;51.30;;
53135;Laerm;40912;51.552;9.874;2023-06-22T02:58:56;48.24;47.00;49.35;;
53135;Laerm;40912;51.552;9.874;2023-06-22T03:01:21;48.27;47.16;51.02;;
53135;Laerm;40912;51.552;9.874;2023-06-22T03:03:44;48.26;47.12;51.27;;
53135;Laerm;40912;51.552;9.874;2023-06-22T03:06:04;48.29;47.12;51.05;;
53135;Laerm;40912;51.552;9.874;2023-06-22T03:08:24;48.27;47.26;50.79;;
53135;Laerm;40912;51.552;9.874;2023-06-22T03:10:44;48.22;47.06;50.74;;
53135;Laerm;40912;51.552;9.874;2023-06-22T03:13:04;48.25;47.18;51.08;;
53135;Laerm;40912;51.552;9.874;2023-06-22T03:15:25;48.23;47.18;50.84;;
53135;Laerm;40912;51.552;9.874;2023-06-22T03:17:46;48.26;47.18;51.01;;
53135;Laerm;40912;51.552;9.874;2023-06-22T03:24:49;48.25;47.12;49.39;;
53135;Laerm;40912;51.552;9.874;2023-06-22T03:27:09;48.29;47.18;50.98;;
53135;Laerm;40912;51.552;9.874;2023-06-22T03:29:29;48.28;47.00;51.38;;
53135;Laerm;40912;51.552;9.874;2023-06-22T03:31:50;48.26;46.91;50.92;;
53135;Laerm;40912;51.552;9.874;2023-06-22T03:34:10;48.25;47.02;51.18;;
53135;Laerm;40912;51.552;9.874;2023-06-22T03:38:51;48.22;46.93;49.18;;
53135;Laerm;40912;51.552;9.874;2023-06-22T03:41:11;48.21;47.12;49.36;;
53135;Laerm;40912;51.552;9.874;2023-06-22T03:43:31;48.21;47.12;49.36;;
53135;Laerm;40912;51.552;9.874;2023-06-22T03:45:51;48.26;47.24;51.22;;
53135;Laerm;40912;51.552;9.874;2023-06-22T03:48:12;48.28;47.00;51.27;;
53135;Laerm;40912;51.552;9.874;2023-06-22T03:50:32;48.28;47.16;51.20;;
53135;Laerm;40912;51.552;9.874;2023-06-22T03:52:52;48.30;47.08;51.37;;
53135;Laerm;40912;51.552;9.874;2023-06-22T03:55:13;48.28;46.95;51.31;;
53135;Laerm;40912;51.552;9.874;2023-06-22T03:57:33;48.29;47.10;51.38;;
53135;Laerm;40912;51.552;9.874;2023-06-22T03:59:56;48.26;47.12;51.62;;
53135;Laerm;40912;51.552;9.874;2023-06-22T04:02:16;48.26;47.14;50.79;;
53135;Laerm;40912;51.552;9.874;2023-06-22T04:04:36;48.22;47.16;51.28;;
53135;Laerm;40912;51.552;9.874;2023-06-22T04:06:58;48.27;47.10;50.84;;
53135;Laerm;40912;51.552;9.874;2023-06-22T04:09:19;48.26;47.03;51.10;;
53135;Laerm;40912;51.552;9.874;2023-06-22T04:11:39;48.26;47.18;51.16;;
53135;Laerm;40912;51.552;9.874;2023-06-22T04:13:59;48.27;47.19;51.32;;
53135;Laerm;40912;51.552;9.874;2023-06-22T04:18:40;48.23;47.00;50.95;;
53135;Laerm;40912;51.552;9.874;2023-06-22T04:21:02;48.21;47.08;51.44;;
53135;Laerm;40912;51.552;9.874;2023-06-22T04:23:22;48.18;47.20;49.28;;
53135;Laerm;40912;51.552;9.874;2023-06-22T04:25:42;48.23;46.80;50.84;;
53135;Laerm;40912;51.552;9.874;2023-06-22T04:28:02;48.29;46.91;50.73;;
53135;Laerm;40912;51.552;9.874;2023-06-22T04:30:24;48.27;47.28;51.11;;
53135;Laerm;40912;51.552;9.874;2023-06-22T04:35:04;48.25;47.18;50.07;;
53135;Laerm;40912;51.552;9.874;2023-06-22T04:37:26;48.31;47.08;51.37;;
53135;Laerm;40912;51.552;9.874;2023-06-22T04:39:46;48.31;47.16;51.33;;
53135;Laerm;40912;51.552;9.874;2023-06-22T04:42:06;48.30;47.02;50.97;;
53135;Laerm;40912;51.552;9.874;2023-06-22T04:44:27;48.30;47.20;51.06;;
53135;Laerm;40912;51.552;9.874;2023-06-22T04:46:47;48.25;47.18;51.06;;
53135;Laerm;40912;51.552;9.874;2023-06-22T04:49:13;48.23;47.00;51.16;;
53135;Laerm;40912;51.552;9.874;2023-06-22T04:51:34;48.24;47.22;49.79;;
53135;Laerm;40912;51.552;9.874;2023-06-22T04:53:54;48.23;46.91;50.99;;
53135;Laerm;40912;51.552;9.874;2023-06-22T04:56:20;48.24;47.20;50.87;;
53135;Laerm;40912;51.552;9.874;2023-06-22T05:01:01;48.30;47.06;50.67;;
53135;Laerm;40912;51.552;9.874;2023-06-22T05:03:26;48.36;47.30;51.08;;
53135;Laerm;40912;51.552;9.874;2023-06-22T05:05:47;48.32;47.22;50.92;;
53135;Laerm;40912;51.552;9.874;2023-06-22T05:08:07;48.30;47.20;51.24;;
53135;Laerm;40912;51.552;9.874;2023-06-22T05:10:27;48.35;47.22;51.37;;
53135;Laerm;40912;51.552;9.874;2023-06-22T05:15:08;48.37;47.28;50.72;;
53135;Laerm;40912;51.552;9.874;2023-06-22T05:17:28;48.33;47.00;51.53;;
53135;Laerm;40912;51.552;9.874;2023-06-22T05:19:49;48.38;47.28;50.49;;
53135;Laerm;40912;51.552;9.874;2023-06-22T05:22:09;48.38;47.16;51.10;;
53135;Laerm;40912;51.552;9.874;2023-06-22T05:24:32;48.35;47.22;50.33;;
53135;Laerm;40912;51.552;9.874;2023-06-22T05:26:52;48.36;47.30;50.80;;
53135;Laerm;40912;51.552;9.874;2023-06-22T05:29:12;48.38;47.13;51.14;;
53135;Laerm;40912;51.552;9.874;2023-06-22T05:36:13;48.38;47.22;51.09;;
53135;Laerm;40912;51.552;9.874;2023-06-22T05:38:34;48.37;47.20;51.31;;
53135;Laerm;40912;51.552;9.874;2023-06-22T05:40:54;48.30;47.20;51.17;;
53135;Laerm;40912;51.552;9.874;2023-06-22T05:43:15;48.29;47.18;51.22;;
53135;Laerm;40912;51.552;9.874;2023-06-22T05:45:35;48.32;47.04;51.40;;
53135;Laerm;40912;51.552;9.874;2023-06-22T05:47:55;48.32;47.34;50.94;;
53135;Laerm;40912;51.552;9.874;2023-06-22T05:52:36;48.36;47.30;51.49;;
53135;Laerm;40912;51.552;9.874;2023-06-22T05:54:57;48.32;47.34;50.67;;
53135;Laerm;40912;51.552;9.874;2023-06-22T05:57:17;48.32;47.14;50.59;;
53135;Laerm;40912;51.552;9.874;2023-06-22T05:59:37;48.39;47.32;51.06;;
53135;Laerm;40912;51.552;9.874;2023-06-22T06:01:57;48.35;47.34;50.82;;
53135;Laerm;40912;51.552;9.874;2023-06-22T06:04:18;48.37;47.28;51.06;;
53135;Laerm;40912;51.552;9.874;2023-06-22T06:06:39;48.36;47.08;51.36;;
53135;Laerm;40912;51.552;9.874;2023-06-22T06:08:59;48.37;47.18;51.11;;
53135;Laerm;40912;51.552;9.874;2023-06-22T06:11:19;48.41;47.30;51.34;;
53135;Laerm;40912;51.552;9.874;2023-06-22T06:13:39;48.39;47.20;50.79;;
53135;Laerm;40912;51.552;9.874;2023-06-22T06:16:00;48.35;47.24;50.79;;
53135;Laerm;40912;51.552;9.874;2023-06-22T06:18:21;48.35;47.22;50.85;;
53135;Laerm;40912;51.552;9.874;2023-06-22T06:20:41;48.40;47.20;50.79;;
53135;Laerm;40912;51.552;9.874;2023-06-22T06:23:01;48.49;47.46;50.84;;
53135;Laerm;40912;51.552;9.874;2023-06-22T06:25:22;48.49;47.46;50.84;;
53135;Laerm;40912;51.552;9.874;2023-06-22T06:27:42;48.36;47.08;51.02;;
53135;Laerm;40912;51.552;9.874;2023-06-22T06:30:03;48.40;47.22;51.30;;
53135;Laerm;40912;51.552;9.874;2023-06-22T06:32:24;48.38;47.16;50.91;;
53135;Laerm;40912;51.552;9.874;2023-06-22T06:37:04;48.36;47.24;51.11;;
53135;Laerm;40912;51.552;9.874;2023-06-22T06:39:24;48.39;47.28;50.55;;
53135;Laerm;40912;51.552;9.874;2023-06-22T06:41:45;48.45;47.38;51.14;;
53135;Laerm;40912;51.552;9.874;2023-06-22T06:44:05;48.43;47.38;51.27;;
53135;Laerm;40912;51.552;9.874;2023-06-22T06:46:26;48.44;47.42;51.08;;
53135;Laerm;40912;51.552;9.874;2023-06-22T06:48:46;48.51;47.34;51.18;;
53135;Laerm;40912;51.552;9.874;2023-06-22T06:53:29;48.57;47.40;51.02;;
53135;Laerm;40912;51.552;9.874;2023-06-22T06:55:50;48.57;47.54;50.71;;
53135;Laerm;40912;51.552;9.874;2023-06-22T06:58:10;48.67;47.44;51.24;;
53135;Laerm;40912;51.552;9.874;2023-06-22T07:00:33;48.62;47.44;50.55;;
53135;Laerm;40912;51.552;9.874;2023-06-22T07:02:53;48.54;47.40;51.13;;
53135;Laerm;40912;51.552;9.874;2023-06-22T07:07:33;48.58;47.48;50.85;;
53135;Laerm;40912;51.552;9.874;2023-06-22T07:09:54;48.58;47.48;50.85;;
53135;Laerm;40912;51.552;9.874;2023-06-22T07:12:14;48.63;47.46;51.40;;
53135;Laerm;40912;51.552;9.874;2023-06-22T07:14:34;48.67;47.65;51.08;;
53135;Laerm;40912;51.552;9.874;2023-06-22T07:16:54;48.71;47.70;51.06;;
53135;Laerm;40912;51.552;9.874;2023-06-22T07:19:15;48.70;47.50;50.79;;
53135;Laerm;40912;51.552;9.874;2023-06-22T07:21:35;48.61;47.54;51.33;;
53135;Laerm;40912;51.552;9.874;2023-06-22T07:23:55;48.62;47.42;51.08;;
53135;Laerm;40912;51.552;9.874;2023-06-22T07:26:16;48.73;47.48;50.91;;
53135;Laerm;40912;51.552;9.874;2023-06-22T07:28:36;48.77;47.52;51.48;;
53135;Laerm;40912;51.552;9.874;2023-06-22T07:33:18;48.77;47.73;51.44;;
53135;Laerm;40912;51.552;9.874;2023-06-22T07:38:00;48.75;47.70;50.80;;
53135;Laerm;40912;51.552;9.874;2023-06-22T07:40:20;48.83;47.77;51.09;;
53135;Laerm;40912;51.552;9.874;2023-06-22T07:42:40;48.76;47.65;51.30;;
53135;Laerm;40912;51.552;9.874;2023-06-22T07:45:01;48.88;47.84;51.28;;
53135;Laerm;40912;51.552;9.874;2023-06-22T07:47:22;48.89;47.81;51.33;;
53135;Laerm;40912;51.552;9.874;2023-06-22T07:54:26;48.84;47.77;51.10;;
53135;Laerm;40912;51.552;9.874;2023-06-22T07:56:46;48.84;47.52;51.06;;
53135;Laerm;40912;51.552;9.874;2023-06-22T07:59:07;48.91;47.65;51.03;;
53135;Laerm;40912;51.552;9.874;2023-06-22T08:01:27;49.05;47.83;51.08;;
53135;Laerm;40912;51.552;9.874;2023-06-22T08:03:48;49.08;47.98;51.49;;
53135;Laerm;40912;51.552;9.874;2023-06-22T08:06:08;49.15;48.08;51.48;;
53135;Laerm;40912;51.552;9.874;2023-06-22T08:08:29;49.18;47.91;51.24;;
53135;Laerm;40912;51.552;9.874;2023-06-22T08:13:09;49.40;48.18;51.28;;
53135;Laerm;40912;51.552;9.874;2023-06-22T08:15:30;49.40;48.18;51.28;;
53135;Laerm;40912;51.552;9.874;2023-06-22T08:17:50;49.41;48.19;51.30;;
53135;Laerm;40912;51.552;9.874;2023-06-22T08:20:12;49.29;48.00;51.41;;
53135;Laerm;40912;51.552;9.874;2023-06-22T08:22:32;49.26;48.12;51.11;;
53135;Laerm;40912;51.552;9.874;2023-06-22T08:24:53;49.25;47.93;51.25;;
53135;Laerm;40912;51.552;9.874;2023-06-22T08:27:13;49.40;48.21;51.56;;
53135;Laerm;40912;51.552;9.874;2023-06-22T08:31:57;49.55;48.37;51.69;;
53135;Laerm;40912;51.552;9.874;2023-06-22T08:34:17;49.58;48.25;51.70;;
53135;Laerm;40912;51.552;9.874;2023-06-22T08:36:41;49.56;48.43;51.72;;
53135;Laerm;40912;51.552;9.874;2023-06-22T08:39:03;49.63;48.45;51.00;;
53135;Laerm;40912;51.552;9.874;2023-06-22T08:41:23;49.74;48.46;51.08;;
53135;Laerm;40912;51.552;9.874;2023-06-22T08:43:45;49.65;48.55;51.85;;
53135;Laerm;40912;51.552;9.874;2023-06-22T08:46:05;49.75;48.51;51.75;;
53135;Laerm;40912;51.552;9.874;2023-06-22T08:48:26;49.86;48.60;51.97;;
53135;Laerm;40912;51.552;9.874;2023-06-22T08:53:06;49.81;48.60;51.69;;
53135;Laerm;40912;51.552;9.874;2023-06-22T08:55:26;49.84;48.52;51.62;;
53135;Laerm;40912;51.552;9.874;2023-06-22T08:57:47;49.94;48.63;51.31;;
53135;Laerm;40912;51.552;9.874;2023-06-22T09:00:07;49.98;48.69;51.60;;
53135;Laerm;40912;51.552;9.874;2023-06-22T09:02:36;50.01;48.73;52.19;;
53135;Laerm;40912;51.552;9.874;2023-06-22T09:04:57;50.06;48.58;52.29;;
53135;Laerm;40912;51.552;9.874;2023-06-22T09:07:17;50.01;48.63;51.29;;
53135;Laerm;40912;51.552;9.874;2023-06-22T09:09:42;49.95;48.71;52.33;;
53135;Laerm;40912;51.552;9.874;2023-06-22T09:12:02;50.03;48.55;51.91;;
53135;Laerm;40912;51.552;9.874;2023-06-22T09:14:22;49.91;48.85;51.44;;
53135;Laerm;40912;51.552;9.874;2023-06-22T09:16:43;49.97;48.74;51.19;;
53135;Laerm;40912;51.552;9.874;2023-06-22T09:19:03;50.14;48.88;51.59;;
53135;Laerm;40912;51.552;9.874;2023-06-22T09:21:23;50.17;48.70;52.02;;
53135;Laerm;40912;51.552;9.874;2023-06-22T09:23:43;50.11;48.94;51.98;;
53135;Laerm;40912;51.552;9.874;2023-06-22T09:26:06;50.15;48.90;52.03;;
53135;Laerm;40912;51.552;9.874;2023-06-22T09:28:27;50.08;48.98;52.08;;
53135;Laerm;40912;51.552;9.874;2023-06-22T09:30:47;50.04;48.46;52.01;;
53135;Laerm;40912;51.552;9.874;2023-06-22T09:33:07;50.16;48.98;51.97;;
53135;Laerm;40912;51.552;9.874;2023-06-22T09:35:28;50.17;48.85;51.98;;
53135;Laerm;40912;51.552;9.874;2023-06-22T09:40:08;50.06;48.81;52.15;;
53135;Laerm;40912;51.552;9.874;2023-06-22T09:42:30;50.12;48.92;51.75;;
53135;Laerm;40912;51.552;9.874;2023-06-22T09:44:50;49.98;48.67;51.84;;
53135;Laerm;40912;51.552;9.874;2023-06-22T09:47:11;50.08;48.78;51.80;;
53135;Laerm;40912;51.552;9.874;2023-06-22T09:49:31;50.08;48.90;51.80;;
53135;Laerm;40912;51.552;9.874;2023-06-22T09:51:52;50.11;48.90;51.69;;
53135;Laerm;40912;51.552;9.874;2023-06-22T09:54:12;50.14;48.78;52.15;;
53135;Laerm;40912;51.552;9.874;2023-06-22T09:56:32;50.16;48.92;51.63;;
53135;Laerm;40912;51.552;9.874;2023-06-22T09:58:53;50.23;48.88;51.91;;
53135;Laerm;40912;51.552;9.874;2023-06-22T10:01:13;50.25;48.60;51.95;;
53135;Laerm;40912;51.552;9.874;2023-06-22T10:03:36;50.23;48.85;51.76;;
53135;Laerm;40912;51.552;9.874;2023-06-22T10:05:56;50.28;48.80;52.22;;
53135;Laerm;40912;51.552;9.874;2023-06-22T10:08:17;50.21;48.80;52.06;;
53135;Laerm;40912;51.552;9.874;2023-06-22T10:10:37;50.20;48.76;52.37;;
53135;Laerm;40912;51.552;9.874;2023-06-22T10:12:57;50.25;48.71;51.89;;
53135;Laerm;40912;51.552;9.874;2023-06-22T10:15:22;50.05;48.73;51.79;;
53135;Laerm;40912;51.552;9.874;2023-06-22T10:17:43;50.14;48.71;51.89;;
53135;Laerm;40912;51.552;9.874;2023-06-22T10:20:03;50.31;48.88;51.77;;
53135;Laerm;40912;51.552;9.874;2023-06-22T10:24:50;50.09;48.90;51.33;;
53135;Laerm;40912;51.552;9.874;2023-06-22T10:27:11;50.03;48.83;51.68;;
53135;Laerm;40912;51.552;9.874;2023-06-22T10:29:31;50.17;48.78;51.85;;
53135;Laerm;40912;51.552;9.874;2023-06-22T10:31:51;50.03;48.74;51.56;;
53135;Laerm;40912;51.552;9.874;2023-06-22T10:34:12;50.14;48.74;52.30;;
53135;Laerm;40912;51.552;9.874;2023-06-22T10:36:33;50.14;48.67;51.62;;
53135;Laerm;40912;51.552;9.874;2023-06-22T10:41:14;50.24;48.87;52.02;;
53135;Laerm;40912;51.552;9.874;2023-06-22T10:43:34;50.22;48.84;52.35;;
53135;Laerm;40912;51.552;9.874;2023-06-22T10:45:54;50.28;48.57;51.97;;
53135;Laerm;40912;51.552;9.874;2023-06-22T10:48:15;50.20;48.78;52.05;;
53135;Laerm;40912;51.552;9.874;2023-06-22T10:50:35;49.99;48.69;52.23;;
53135;Laerm;40912;51.552;9.874;2023-06-22T10:52:55;50.09;48.76;51.53;;
53135;Laerm;40912;51.552;9.874;2023-06-22T10:59:56;50.07;48.64;51.75;;
53135;Laerm;40912;51.552;9.874;2023-06-22T11:02:16;50.11;48.52;52.38;;
53135;Laerm;40912;51.552;9.874;2023-06-22T11:04:37;51.56;48.88;56.90;;
53135;Laerm;40912;51.552;9.874;2023-06-22T11:06:57;52.59;49.19;56.61;;
53135;Laerm;40912;51.552;9.874;2023-06-22T11:09:17;51.79;49.28;55.85;;
53135;Laerm;40912;51.552;9.874;2023-06-22T11:11:41;51.72;49.19;56.24;;
53135;Laerm;40912;51.552;9.874;2023-06-22T11:14:01;52.02;48.76;56.05;;
53135;Laerm;40912;51.552;9.874;2023-06-22T11:16:21;52.21;50.32;56.50;;
53135;Laerm;40912;51.552;9.874;2023-06-22T11:18:41;52.54;49.51;57.31;;
53135;Laerm;40912;51.552;9.874;2023-06-22T11:21:02;52.18;49.18;56.96;;
53135;Laerm;40912;51.552;9.874;2023-06-22T11:25:42;52.13;49.78;57.04;;
53135;Laerm;40912;51.552;9.874;2023-06-22T11:28:02;52.73;49.56;57.35;;
53135;Laerm;40912;51.552;9.874;2023-06-22T11:30:23;52.56;50.68;57.29;;
53135;Laerm;40912;51.552;9.874;2023-06-22T11:32:43;52.69;49.12;57.74;;
53135;Laerm;40912;51.552;9.874;2023-06-22T11:35:03;52.68;49.74;57.75;;
53135;Laerm;40912;51.552;9.874;2023-06-22T11:37:24;52.72;49.90;57.56;;
53135;Laerm;40912;51.552;9.874;2023-06-22T11:39:44;52.16;49.18;56.55;;
53135;Laerm;40912;51.552;9.874;2023-06-22T11:42:05;52.33;49.87;57.68;;
53135;Laerm;40912;51.552;9.874;2023-06-22T11:46:45;52.72;49.85;57.11;;
53135;Laerm;40912;51.552;9.874;2023-06-22T11:49:06;52.38;49.53;56.97;;
53135;Laerm;40912;51.552;9.874;2023-06-22T11:51:26;52.28;49.39;57.33;;
53135;Laerm;40912;51.552;9.874;2023-06-22T11:53:46;52.28;49.39;57.33;;
53135;Laerm;40912;51.552;9.874;2023-06-22T11:56:07;52.68;48.96;57.51;;
53135;Laerm;40912;51.552;9.874;2023-06-22T11:58:27;52.66;49.75;57.91;;
53135;Laerm;40912;51.552;9.874;2023-06-22T12:00:47;52.09;49.34;56.00;;
53135;Laerm;40912;51.552;9.874;2023-06-22T12:05:29;52.42;49.51;56.72;;
53135;Laerm;40912;51.552;9.874;2023-06-22T12:07:49;52.35;50.43;56.87;;
53135;Laerm;40912;51.552;9.874;2023-06-22T12:14:49;52.56;49.28;57.61;;
53135;Laerm;40912;51.552;9.874;2023-06-22T12:17:10;52.66;49.36;57.68;;
53135;Laerm;40912;51.552;9.874;2023-06-22T12:19:30;52.13;49.44;57.02;;
53135;Laerm;40912;51.552;9.874;2023-06-22T12:21:50;51.92;48.85;56.70;;
53135;Laerm;40912;51.552;9.874;2023-06-22T12:24:10;51.84;50.19;55.60;;
53135;Laerm;40912;51.552;9.874;2023-06-22T12:26:31;52.51;49.53;56.97;;
53135;Laerm;40912;51.552;9.874;2023-06-22T12:31:11;52.17;49.78;56.82;;
53135;Laerm;40912;51.552;9.874;2023-06-22T12:33:31;52.53;49.28;57.15;;
53135;Laerm;40912;51.552;9.874;2023-06-22T12:35:51;52.33;50.42;56.91;;
53135;Laerm;40912;51.552;9.874;2023-06-22T12:38:12;52.03;48.94;56.34;;
53135;Laerm;40912;51.552;9.874;2023-06-22T12:42:53;52.34;48.99;57.13;;
53135;Laerm;40912;51.552;9.874;2023-06-22T12:45:13;52.67;50.61;57.81;;
53135;Laerm;40912;51.552;9.874;2023-06-22T12:47:33;52.17;49.27;56.34;;
53135;Laerm;40912;51.552;9.874;2023-06-22T12:49:54;52.41;48.85;57.47;;
53135;Laerm;40912;51.552;9.874;2023-06-22T12:52:14;52.50;50.62;56.91;;
53135;Laerm;40912;51.552;9.874;2023-06-22T12:54:34;52.33;49.21;56.83;;
53135;Laerm;40912;51.552;9.874;2023-06-22T12:56:54;52.52;50.56;57.53;;
53135;Laerm;40912;51.552;9.874;2023-06-22T12:59:15;52.48;49.30;56.67;;
53135;Laerm;40912;51.552;9.874;2023-06-22T13:01:37;52.58;49.39;57.56;;
53135;Laerm;40912;51.552;9.874;2023-06-22T13:06:17;52.30;50.14;57.02;;
53135;Laerm;40912;51.552;9.874;2023-06-22T13:08:37;51.53;48.25;55.87;;
53135;Laerm;40912;51.552;9.874;2023-06-22T13:10:58;49.52;48.23;51.47;;
53135;Laerm;40912;51.552;9.874;2023-06-22T13:13:18;49.59;48.45;51.09;;
53135;Laerm;40912;51.552;9.874;2023-06-22T13:15:38;49.97;48.45;55.81;;
53135;Laerm;40912;51.552;9.874;2023-06-22T13:17:58;51.68;48.90;56.30;;
53135;Laerm;40912;51.552;9.874;2023-06-22T13:20:19;51.82;48.98;55.98;;
53135;Laerm;40912;51.552;9.874;2023-06-22T13:22:39;52.03;49.32;55.68;;
53135;Laerm;40912;51.552;9.874;2023-06-22T13:25:03;51.71;50.08;55.41;;
53135;Laerm;40912;51.552;9.874;2023-06-22T13:27:24;52.00;49.40;56.16;;
53135;Laerm;40912;51.552;9.874;2023-06-22T13:29:44;52.10;49.19;56.40;;
53135;Laerm;40912;51.552;9.874;2023-06-22T13:32:04;52.17;50.40;56.61;;
53135;Laerm;40912;51.552;9.874;2023-06-22T13:34:25;52.46;49.92;56.91;;
53135;Laerm;40912;51.552;9.874;2023-06-22T13:36:45;52.29;50.26;56.37;;
53135;Laerm;40912;51.552;9.874;2023-06-22T13:39:06;51.97;49.55;55.23;;
53135;Laerm;40912;51.552;9.874;2023-06-22T13:41:26;52.02;50.07;56.48;;
53135;Laerm;40912;51.552;9.874;2023-06-22T13:43:46;51.95;49.83;56.19;;
53135;Laerm;40912;51.552;9.874;2023-06-22T13:46:08;52.32;49.65;56.76;;
53135;Laerm;40912;51.552;9.874;2023-06-22T13:48:28;52.04;49.53;56.00;;
53135;Laerm;40912;51.552;9.874;2023-06-22T13:53:09;52.25;49.34;56.61;;
53135;Laerm;40912;51.552;9.874;2023-06-22T13:55:30;52.01;49.14;55.76;;
53135;Laerm;40912;51.552;9.874;2023-06-22T13:57:50;52.01;49.14;55.76;;
53135;Laerm;40912;51.552;9.874;2023-06-22T14:00:11;52.09;49.36;56.08;;
53135;Laerm;40912;51.552;9.874;2023-06-22T14:02:34;51.77;49.36;54.55;;
53135;Laerm;40912;51.552;9.874;2023-06-22T14:04:55;51.66;49.52;55.76;;
53135;Laerm;40912;51.552;9.874;2023-06-22T14:07:15;51.23;49.11;54.83;;
53135;Laerm;40912;51.552;9.874;2023-06-22T14:09:35;51.35;49.06;54.32;;
53135;Laerm;40912;51.552;9.874;2023-06-22T14:11:55;51.17;49.07;54.65;;
53135;Laerm;40912;51.552;9.874;2023-06-22T14:14:16;51.27;49.52;54.56;;
53135;Laerm;40912;51.552;9.874;2023-06-22T14:16:36;51.83;49.74;54.92;;
53135;Laerm;40912;51.552;9.874;2023-06-22T14:18:56;52.12;49.66;55.79;;
53135;Laerm;40912;51.552;9.874;2023-06-22T14:21:16;51.64;49.81;54.79;;
53135;Laerm;40912;51.552;9.874;2023-06-22T14:23:37;51.30;49.79;54.35;;
53135;Laerm;40912;51.552;9.874;2023-06-22T14:25:58;51.67;49.34;54.40;;
53135;Laerm;40912;51.552;9.874;2023-06-22T14:30:38;51.84;50.31;54.70;;
53135;Laerm;40912;51.552;9.874;2023-06-22T14:32:58;51.63;49.10;54.64;;
53135;Laerm;40912;51.552;9.874;2023-06-22T14:37:41;51.53;49.10;54.10;;
53135;Laerm;40912;51.552;9.874;2023-06-22T14:40:01;51.42;49.52;54.50;;
53135;Laerm;40912;51.552;9.874;2023-06-22T14:42:21;51.50;49.75;53.43;;
53135;Laerm;40912;51.552;9.874;2023-06-22T14:44:42;51.71;48.83;53.91;;
53135;Laerm;40912;51.552;9.874;2023-06-22T14:49:22;51.46;50.03;53.23;;
53135;Laerm;40912;51.552;9.874;2023-06-22T14:51:42;51.58;49.96;53.65;;
53135;Laerm;40912;51.552;9.874;2023-06-22T14:54:03;51.79;48.81;53.94;;
53135;Laerm;40912;51.552;9.874;2023-06-22T14:56:23;51.58;48.90;53.71;;
53135;Laerm;40912;51.552;9.874;2023-06-22T14:58:43;51.49;49.96;54.34;;
53135;Laerm;40912;51.552;9.874;2023-06-22T15:01:05;51.78;50.01;54.17;;
53135;Laerm;40912;51.552;9.874;2023-06-22T15:03:28;51.74;49.88;54.59;;
53135;Laerm;40912;51.552;9.874;2023-06-22T15:08:10;51.41;49.74;54.51;;
53135;Laerm;40912;51.552;9.874;2023-06-22T15:10:30;51.60;50.01;53.96;;
53135;Laerm;40912;51.552;9.874;2023-06-22T15:12:51;51.64;50.00;54.09;;